createdAt,value
2019-04-05T00:00:35.524Z,77842.88
2019-04-05T00:03:05.152Z,77845.91
2019-04-05T00:05:35.868Z,77845.91
2019-04-05T00:08:05.884Z,77844.89
2019-04-05T00:10:35.488Z,77840.86
2019-04-05T00:13:05.078Z,77835.80
2019-04-05T00:15:34.359Z,77820.65
2019-04-05T00:18:03.939Z,77812.56
2019-04-05T00:20:33.222Z,77803.47
2019-04-05T00:23:03.567Z,77791.34
2019-04-05T00:25:33.172Z,77792.36
2019-04-05T00:28:03.993Z,77823.68
2019-04-05T00:30:33.673Z,77833.78
2019-04-05T00:33:02.923Z,77829.74
2019-04-05T00:35:35.042Z,77828.73
2019-04-05T00:38:04.818Z,77841.86
2019-04-05T00:40:34.050Z,77848.94
2019-04-05T00:43:04.762Z,77844.89
2019-04-05T00:45:34.529Z,77848.94
2019-04-05T00:48:05.575Z,77850.95
2019-04-05T00:50:34.832Z,77855.00
2019-04-05T00:53:04.831Z,77844.89
2019-04-05T00:55:34.081Z,77837.83
2019-04-05T00:58:03.320Z,77830.75
2019-04-05T01:00:32.691Z,77832.77
2019-04-05T01:03:01.988Z,77829.74
2019-04-05T01:05:31.537Z,77845.91
2019-04-05T01:08:00.900Z,77839.84
2019-04-05T01:10:30.163Z,77821.66
2019-04-05T01:13:00.724Z,77819.64
2019-04-05T01:15:40.186Z,77806.50
2019-04-05T01:18:00.996Z,77801.45
2019-04-05T01:20:34.574Z,77813.58
2019-04-05T01:23:04.534Z,77790.34
2019-04-05T01:25:37.576Z,77788.31
2019-04-05T01:28:06.847Z,77787.31
2019-04-05T01:30:36.598Z,77783.27
2019-04-05T01:33:07.638Z,77776.20
2019-04-05T01:35:36.889Z,77772.16
2019-04-05T01:38:06.178Z,77771.14
2019-04-05T01:40:37.090Z,77777.20
2019-04-05T01:43:06.896Z,77781.25
2019-04-05T01:45:36.492Z,77785.28
2019-04-05T01:48:07.131Z,77789.33
2019-04-05T01:50:36.373Z,77787.31
2019-04-05T01:53:06.644Z,77812.56
2019-04-05T01:55:36.193Z,77830.75
2019-04-05T01:58:05.453Z,77831.77
2019-04-05T02:00:37.428Z,77811.55
2019-04-05T02:03:07.696Z,77823.68
2019-04-05T02:05:38.439Z,77827.72
2019-04-05T02:08:07.737Z,77826.71
2019-04-05T02:10:37.495Z,77833.78
2019-04-05T02:13:08.888Z,77839.84
2019-04-05T02:15:38.741Z,77866.11
2019-04-05T02:18:08.375Z,77872.17
2019-04-05T02:20:38.324Z,77871.17
2019-04-05T02:23:07.919Z,77844.89
2019-04-05T02:25:37.580Z,77825.70
2019-04-05T02:28:06.836Z,77820.65
2019-04-05T02:30:36.520Z,77826.71
2019-04-05T02:33:05.990Z,77823.68
2019-04-05T02:35:38.955Z,77812.56
2019-04-05T02:38:06.420Z,77809.53
2019-04-05T02:40:36.311Z,77807.52
2019-04-05T02:43:05.916Z,77816.61
2019-04-05T02:45:36.703Z,77825.70
2019-04-05T02:48:08.699Z,77817.62
2019-04-05T02:50:41.723Z,77814.59
2019-04-05T02:53:12.503Z,77827.72
2019-04-05T02:55:42.255Z,77842.88
2019-04-05T02:58:13.896Z,77829.74
2019-04-05T03:00:43.793Z,77827.72
2019-04-05T03:03:14.052Z,77849.95
2019-04-05T03:05:43.316Z,77855.00
2019-04-05T03:08:13.562Z,77838.84
2019-04-05T03:11:07.041Z,77829.74
2019-04-05T03:13:51.725Z,77832.77
2019-04-05T03:16:39.125Z,77873.19
2019-04-05T03:18:59.223Z,77889.35
2019-04-05T03:21:30.650Z,77890.36
2019-04-05T03:24:03.375Z,77893.39
2019-04-05T03:26:35.146Z,77903.50
2019-04-05T03:29:07.508Z,77898.45
2019-04-05T03:31:38.633Z,77898.45
2019-04-05T03:34:09.245Z,77886.32
2019-04-05T03:36:39.486Z,77888.34
2019-04-05T03:39:09.163Z,77902.48
2019-04-05T03:41:39.892Z,77880.26
2019-04-05T03:44:09.596Z,77868.13
2019-04-05T03:46:54.719Z,77864.09
2019-04-05T03:49:10.495Z,77861.06
2019-04-05T03:51:39.971Z,77856.01
2019-04-05T03:54:09.213Z,77849.95
2019-04-05T03:56:38.724Z,77859.05
2019-04-05T03:59:08.125Z,77861.06
2019-04-05T04:01:37.373Z,77879.25
2019-04-05T04:04:06.705Z,77877.23
2019-04-05T04:06:36.717Z,77880.26
2019-04-05T04:09:07.334Z,77875.20
2019-04-05T04:11:37.374Z,77870.16
2019-04-05T04:14:07.103Z,77864.09
2019-04-05T04:16:36.797Z,77866.11
2019-04-05T04:19:07.521Z,77862.08
2019-04-05T04:22:03.705Z,77852.98
2019-04-05T04:24:33.447Z,77861.06
2019-04-05T04:27:03.080Z,77870.16
2019-04-05T04:29:32.681Z,77877.23
2019-04-05T04:32:02.660Z,77872.17
2019-04-05T04:34:33.730Z,77869.14
2019-04-05T04:37:03.364Z,77864.09
2019-04-05T04:39:32.967Z,77864.09
2019-04-05T04:42:02.919Z,77864.09
2019-04-05T04:44:33.567Z,77861.06
2019-04-05T04:47:03.150Z,77862.08
2019-04-05T04:49:32.500Z,77849.95
2019-04-05T04:52:03.074Z,77849.95
2019-04-05T04:54:32.761Z,77850.95
2019-04-05T04:57:02.043Z,77841.86
2019-04-05T04:59:32.715Z,77844.89
2019-04-05T05:02:02.088Z,77861.06
2019-04-05T05:04:31.576Z,77856.01
2019-04-05T05:07:02.668Z,77859.05
2019-04-05T05:09:32.271Z,77889.35
2019-04-05T05:12:01.638Z,77886.32
2019-04-05T05:14:32.605Z,77884.30
2019-04-05T05:17:02.396Z,77880.26
2019-04-05T05:19:31.969Z,77880.26
2019-04-05T05:22:01.540Z,77896.42
2019-04-05T05:24:31.013Z,77883.29
2019-04-05T05:27:01.255Z,77874.20
2019-04-05T05:29:31.173Z,77883.29
2019-04-05T05:32:00.641Z,77883.29
2019-04-05T05:34:29.884Z,77885.31
2019-04-05T05:36:59.149Z,77894.41
2019-04-05T05:39:30.602Z,77881.27
2019-04-05T05:41:59.871Z,77896.42
2019-04-05T05:44:29.516Z,77904.51
2019-04-05T05:46:58.841Z,77884.30
2019-04-05T05:49:28.377Z,77879.25
2019-04-05T05:51:58.143Z,77869.14
2019-04-05T05:54:27.713Z,77885.31
2019-04-05T05:56:57.283Z,77892.38
2019-04-05T05:59:30.323Z,77885.31
2019-04-05T06:01:58.775Z,77875.20
2019-04-05T06:04:28.061Z,77860.05
2019-04-05T06:06:58.408Z,77858.03
2019-04-05T06:09:31.117Z,77846.92
2019-04-05T06:12:00.407Z,77855.00
2019-04-05T06:14:31.233Z,77847.93
2019-04-05T06:17:00.450Z,77847.93
2019-04-05T06:19:29.713Z,77834.80
2019-04-05T06:21:59.379Z,77841.86
2019-04-05T06:24:31.697Z,77860.05
2019-04-05T06:27:01.941Z,77848.94
2019-04-05T06:29:31.208Z,77836.81
2019-04-05T06:32:00.492Z,77839.84
2019-04-05T06:34:30.072Z,77842.88
2019-04-05T06:36:59.332Z,77846.92
2019-04-05T06:39:28.922Z,77860.05
2019-04-05T06:41:58.209Z,77841.86
2019-04-05T06:44:28.140Z,77836.81
2019-04-05T06:46:57.495Z,77840.86
2019-04-05T06:49:26.779Z,77842.88
2019-04-05T06:51:56.355Z,77829.74
2019-04-05T06:54:25.621Z,77802.46
2019-04-05T06:56:54.894Z,77754.98
2019-04-05T06:59:24.446Z,77757.00
2019-04-05T07:01:55.504Z,77744.88
2019-04-05T07:04:25.162Z,77732.75
2019-04-05T07:06:57.131Z,77755.98
2019-04-05T07:09:26.712Z,77741.84
2019-04-05T07:11:57.206Z,77735.78
2019-04-05T07:14:26.715Z,77745.88
2019-04-05T07:16:55.971Z,77758.01
2019-04-05T07:19:25.223Z,77744.88
2019-04-05T07:21:54.484Z,77742.85
2019-04-05T07:24:25.878Z,77718.61
2019-04-05T07:26:55.159Z,77727.70
2019-04-05T07:29:24.410Z,77722.64
2019-04-05T07:31:53.696Z,77733.76
2019-04-05T07:34:22.964Z,77746.89
2019-04-05T07:36:52.227Z,77737.80
2019-04-05T07:39:21.482Z,77719.61
2019-04-05T07:41:51.351Z,77735.78
2019-04-05T07:44:20.646Z,77729.72
2019-04-05T07:46:49.920Z,77731.73
2019-04-05T07:49:19.151Z,77736.79
2019-04-05T07:51:49.233Z,77729.72
2019-04-05T07:54:18.823Z,77717.59
2019-04-05T07:56:48.470Z,77725.68
2019-04-05T07:59:20.801Z,77711.53
2019-04-05T08:01:50.560Z,77713.55
2019-04-05T08:04:19.875Z,77706.48
2019-04-05T08:06:50.191Z,77720.63
2019-04-05T08:09:19.950Z,77713.55
2019-04-05T08:11:50.406Z,77702.44
2019-04-05T08:14:21.137Z,77685.27
2019-04-05T08:16:51.079Z,77666.07
2019-04-05T08:19:20.535Z,77643.84
2019-04-05T08:21:51.076Z,77635.76
2019-04-05T08:24:20.358Z,77614.55
2019-04-05T08:26:49.649Z,77589.28
2019-04-05T08:29:19.289Z,77587.27
2019-04-05T08:31:50.367Z,77585.25
2019-04-05T08:34:19.626Z,77574.13
2019-04-05T08:36:48.920Z,77602.42
2019-04-05T08:39:18.177Z,77670.11
2019-04-05T08:41:47.457Z,77643.84
2019-04-05T08:44:16.693Z,77627.68
2019-04-05T08:46:46.343Z,77606.46
2019-04-05T08:49:17.192Z,77584.23
2019-04-05T08:51:46.797Z,77561.00
2019-04-05T08:54:16.075Z,77583.23
2019-04-05T08:56:47.005Z,77600.40
2019-04-05T08:59:16.278Z,77599.39
2019-04-05T09:01:45.595Z,77585.25
2019-04-05T09:04:14.818Z,77597.37
2019-04-05T09:06:46.103Z,77576.16
2019-04-05T09:09:15.688Z,77516.55
2019-04-05T09:11:46.746Z,77464.02
2019-04-05T09:14:16.538Z,77409.46
2019-04-05T09:16:46.163Z,77354.91
2019-04-05T09:19:23.494Z,77373.09
2019-04-05T09:21:46.445Z,77409.46
2019-04-05T09:24:15.697Z,77409.46
2019-04-05T09:26:44.966Z,77410.47
2019-04-05T09:29:14.208Z,77483.20
2019-04-05T09:31:43.500Z,77568.07
2019-04-05T09:34:12.757Z,77564.03
2019-04-05T09:36:43.487Z,77537.77
2019-04-05T09:39:15.884Z,77534.73
2019-04-05T09:41:45.180Z,77525.64
2019-04-05T09:44:15.210Z,77527.66
2019-04-05T09:46:47.119Z,77538.77
2019-04-05T09:49:15.856Z,77536.75
2019-04-05T09:51:45.130Z,77504.42
2019-04-05T09:54:14.734Z,77465.02
2019-04-05T09:56:44.073Z,77444.81
2019-04-05T09:59:15.154Z,77473.11
2019-04-05T10:01:44.393Z,77483.20
2019-04-05T10:04:13.872Z,77506.45
2019-04-05T10:06:43.449Z,77519.58
2019-04-05T10:09:13.483Z,77490.28
2019-04-05T10:11:44.744Z,77479.16
2019-04-05T10:14:14.510Z,77452.90
2019-04-05T10:16:44.234Z,77468.05
2019-04-05T10:19:13.839Z,77448.86
2019-04-05T10:21:43.448Z,77430.67
2019-04-05T10:24:12.732Z,77429.66
2019-04-05T10:26:41.992Z,77347.84
2019-04-05T10:29:11.277Z,77326.63
2019-04-05T10:31:40.958Z,77258.94
2019-04-05T10:34:10.574Z,77215.50
2019-04-05T10:36:39.879Z,77210.45
2019-04-05T10:39:10.474Z,77311.47
2019-04-05T10:41:40.728Z,77340.77
2019-04-05T10:44:14.265Z,77380.16
2019-04-05T10:46:43.993Z,77393.30
2019-04-05T10:49:15.157Z,77408.45
2019-04-05T10:51:44.585Z,77430.67
2019-04-05T10:54:13.986Z,77425.63
2019-04-05T10:56:43.583Z,77409.46
2019-04-05T10:59:13.261Z,77415.52
2019-04-05T11:01:42.604Z,77370.06
2019-04-05T11:04:12.241Z,77339.75
2019-04-05T11:06:42.768Z,77345.81
2019-04-05T11:09:12.010Z,77371.07
2019-04-05T11:11:41.258Z,77410.47
2019-04-05T11:14:14.045Z,77339.75
2019-04-05T11:16:41.576Z,77343.80
2019-04-05T11:19:11.116Z,77358.95
2019-04-05T11:21:40.400Z,77310.45
2019-04-05T11:24:10.192Z,77287.22
2019-04-05T11:26:39.805Z,77249.84
2019-04-05T11:29:09.345Z,77201.36
2019-04-05T11:31:39.013Z,77111.45
2019-04-05T11:34:08.562Z,77082.16
2019-04-05T11:36:39.708Z,77173.07
2019-04-05T11:39:09.262Z,77160.95
2019-04-05T11:41:38.848Z,77130.64
2019-04-05T11:44:09.119Z,77113.47
2019-04-05T11:46:39.835Z,77145.80
2019-04-05T11:49:09.391Z,77173.07
2019-04-05T11:51:38.672Z,77196.30
2019-04-05T11:54:08.079Z,77238.73
2019-04-05T11:56:37.602Z,77259.95
2019-04-05T11:59:13.374Z,77242.77
2019-04-05T12:01:52.292Z,77181.16
2019-04-05T12:04:21.671Z,77212.47
2019-04-05T12:06:52.148Z,77245.80
2019-04-05T12:09:23.015Z,77254.89
2019-04-05T12:11:52.706Z,77275.09
2019-04-05T12:14:30.194Z,77272.07
2019-04-05T12:16:54.850Z,77250.86
2019-04-05T12:19:24.109Z,77258.94
2019-04-05T12:21:55.501Z,77267.02
2019-04-05T12:24:24.830Z,77222.57
2019-04-05T12:26:54.302Z,77236.71
2019-04-05T12:29:23.694Z,77298.33
2019-04-05T12:31:54.415Z,77300.36
2019-04-05T12:34:24.058Z,77254.89
2019-04-05T12:36:54.889Z,77221.56
2019-04-05T12:39:24.247Z,77243.78
2019-04-05T12:41:53.643Z,77240.75
2019-04-05T12:44:23.318Z,77258.94
2019-04-05T12:46:53.341Z,77234.69
2019-04-05T12:49:22.576Z,77220.55
2019-04-05T12:51:53.384Z,77207.42
2019-04-05T12:54:22.722Z,77207.42
2019-04-05T12:56:54.153Z,77223.58
2019-04-05T12:59:25.540Z,77202.36
2019-04-05T13:01:55.185Z,77190.24
2019-04-05T13:04:24.462Z,77070.03
2019-04-05T13:06:55.528Z,77107.41
2019-04-05T13:09:26.899Z,77074.08
2019-04-05T13:11:57.393Z,77113.47
2019-04-05T13:14:27.053Z,77199.34
2019-04-05T13:17:02.589Z,77262.98
2019-04-05T13:19:31.323Z,77299.34
2019-04-05T13:22:02.812Z,77335.71
2019-04-05T13:24:32.085Z,77376.13
2019-04-05T13:27:01.993Z,77384.20
2019-04-05T13:29:33.111Z,77349.86
2019-04-05T13:32:02.724Z,77316.52
2019-04-05T13:34:32.022Z,77324.60
2019-04-05T13:37:01.878Z,77300.36
2019-04-05T13:39:31.334Z,77292.27
2019-04-05T13:42:01.774Z,77228.63
2019-04-05T13:44:31.972Z,77212.47
2019-04-05T13:47:01.740Z,77219.54
2019-04-05T13:49:31.006Z,77194.28
2019-04-05T13:52:00.591Z,77223.58
2019-04-05T13:54:30.386Z,77246.81
2019-04-05T13:56:59.654Z,77281.16
2019-04-05T13:59:29.301Z,77259.95
2019-04-05T14:02:05.926Z,77259.95
2019-04-05T14:04:30.071Z,77279.14
2019-04-05T14:06:59.852Z,77337.73
2019-04-05T14:09:31.562Z,77328.64
2019-04-05T14:12:01.540Z,77342.78
2019-04-05T14:14:30.817Z,77360.97
2019-04-05T14:17:00.429Z,77368.04
2019-04-05T14:19:30.790Z,77387.23
2019-04-05T14:22:08.360Z,77382.19
2019-04-05T14:24:31.366Z,77405.42
2019-04-05T14:27:02.915Z,77397.34
2019-04-05T14:29:33.357Z,77396.33
2019-04-05T14:33:31.982Z,77328.64
2019-04-05T14:36:01.247Z,77326.63
2019-04-05T14:38:31.418Z,77337.73
2019-04-05T14:41:00.974Z,77338.75
2019-04-05T14:43:30.253Z,77353.90
2019-04-05T14:46:02.777Z,77373.09
2019-04-05T14:48:33.247Z,77368.04
2019-04-05T14:51:02.626Z,77338.75
2019-04-05T14:53:33.004Z,77332.68
2019-04-05T14:56:03.337Z,77328.64
2019-04-05T14:58:34.230Z,77326.63
2019-04-05T15:01:04.050Z,77307.42
2019-04-05T15:03:33.327Z,77310.45
2019-04-05T15:06:02.603Z,77302.38
2019-04-05T15:08:33.894Z,77287.22
2019-04-05T15:11:03.508Z,77323.59
2019-04-05T15:13:32.767Z,77328.64
2019-04-05T15:16:02.421Z,77340.77
2019-04-05T15:18:31.757Z,77357.94
2019-04-05T15:21:01.337Z,77379.16
2019-04-05T15:23:30.935Z,77425.63
2019-04-05T15:26:03.003Z,77441.78
2019-04-05T15:28:32.612Z,77446.84
2019-04-05T15:31:01.908Z,77445.83
2019-04-05T15:33:31.147Z,77460.98
2019-04-05T15:36:03.107Z,77439.77
2019-04-05T15:38:32.474Z,77454.92
2019-04-05T15:41:02.597Z,77435.73
2019-04-05T15:43:31.968Z,77443.81
2019-04-05T15:46:01.311Z,77437.75
2019-04-05T15:48:30.581Z,77444.81
2019-04-05T15:51:00.645Z,77443.81
2019-04-05T15:53:32.225Z,77449.88
2019-04-05T15:56:04.351Z,77459.97
2019-04-05T15:58:34.114Z,77460.98
2019-04-05T16:01:07.628Z,77487.25
2019-04-05T16:03:37.101Z,77491.29
2019-04-05T16:06:07.435Z,77482.20
2019-04-05T16:08:36.698Z,77484.22
2019-04-05T16:11:05.990Z,77479.16
2019-04-05T16:13:35.300Z,77478.16
2019-04-05T16:16:04.782Z,77458.96
2019-04-05T16:18:34.410Z,77456.94
2019-04-05T16:21:03.650Z,77460.98
2019-04-05T16:23:33.236Z,77454.92
2019-04-05T16:26:02.535Z,77446.84
2019-04-05T16:28:31.791Z,77445.83
2019-04-05T16:31:01.057Z,77446.84
2019-04-05T16:33:30.714Z,77464.02
2019-04-05T16:36:00.355Z,77455.93
2019-04-05T16:38:30.057Z,77449.88
2019-04-05T16:40:59.286Z,77450.88
2019-04-05T16:43:31.434Z,77445.83
2019-04-05T16:46:00.970Z,77433.70
2019-04-05T16:48:32.381Z,77443.81
2019-04-05T16:51:03.320Z,77453.91
2019-04-05T16:53:32.791Z,77453.91
2019-04-05T16:56:02.357Z,77461.99
2019-04-05T16:58:31.707Z,77463.00
2019-04-05T17:01:01.756Z,77478.16
2019-04-05T17:03:31.031Z,77488.26
2019-04-05T17:06:01.566Z,77490.28
2019-04-05T17:08:33.860Z,77495.33
2019-04-05T17:11:03.155Z,77486.23
2019-04-05T17:13:33.191Z,77491.29
2019-04-05T17:16:03.107Z,77488.26
2019-04-05T17:18:32.829Z,77484.22
2019-04-05T17:21:03.814Z,77485.23
2019-04-05T17:23:33.416Z,77492.30
2019-04-05T17:26:04.082Z,77493.31
2019-04-05T17:28:35.335Z,77488.26
2019-04-05T17:31:04.955Z,77488.26
2019-04-05T17:33:34.589Z,77497.35
2019-04-05T17:36:04.009Z,77503.41
2019-04-05T17:38:34.289Z,77484.22
2019-04-05T17:41:04.179Z,77486.23
2019-04-05T17:43:34.447Z,77484.22
2019-04-05T17:46:03.817Z,77496.34
2019-04-05T17:48:33.181Z,77492.30
2019-04-05T17:51:02.943Z,77501.39
2019-04-05T17:53:32.544Z,77501.39
2019-04-05T17:56:02.278Z,77505.44
2019-04-05T17:58:33.371Z,77501.39
2019-04-05T18:01:03.104Z,77506.45
2019-04-05T18:03:32.837Z,77523.62
2019-04-05T18:06:02.471Z,77520.59
2019-04-05T18:08:31.704Z,77511.50
2019-04-05T18:11:01.356Z,77491.29
2019-04-05T18:13:30.692Z,77506.45
2019-04-05T18:16:00.139Z,77512.50
2019-04-05T18:18:30.024Z,77518.56
2019-04-05T18:21:01.047Z,77543.83
2019-04-05T18:23:30.399Z,77540.80
2019-04-05T18:25:59.702Z,77555.95
2019-04-05T18:28:29.028Z,77564.03
2019-04-05T18:30:58.303Z,77572.11
2019-04-05T18:33:27.651Z,77570.09
2019-04-05T18:35:57.098Z,77549.89
2019-04-05T18:38:28.341Z,77564.03
2019-04-05T18:40:58.024Z,77571.10
2019-04-05T18:43:28.912Z,77578.17
2019-04-05T18:45:58.327Z,77577.16
2019-04-05T18:48:27.944Z,77580.20
2019-04-05T18:50:57.873Z,77568.07
2019-04-05T18:53:37.000Z,77574.13
2019-04-05T18:56:00.967Z,77584.23
2019-04-05T18:58:30.233Z,77586.25
2019-04-05T19:00:59.876Z,77585.25
2019-04-05T19:03:29.192Z,77589.28
2019-04-05T19:05:58.618Z,77577.16
2019-04-05T19:08:39.015Z,77577.16
2019-04-05T19:10:59.756Z,77581.20
2019-04-05T19:13:29.242Z,77574.13
2019-04-05T19:15:59.853Z,77580.20
2019-04-05T19:18:29.587Z,77570.09
2019-04-05T19:21:02.364Z,77562.01
2019-04-05T19:23:31.939Z,77556.95
2019-04-05T19:26:01.192Z,77557.97
2019-04-05T19:28:31.698Z,77564.03
2019-04-05T19:48:45.268Z,77595.34
2019-04-05T19:51:14.887Z,77611.52
2019-04-05T19:53:44.174Z,77591.31
2019-04-05T19:56:14.204Z,77597.37
2019-04-05T19:58:43.825Z,77600.40
2019-04-05T20:01:13.090Z,77618.59
2019-04-05T20:03:42.368Z,77602.42
2019-04-05T20:06:11.651Z,77605.45
2019-04-05T20:08:40.938Z,77627.68
2019-04-05T20:11:10.532Z,77635.76
2019-04-05T20:13:39.762Z,77638.79
2019-04-05T20:16:09.424Z,77622.63
2019-04-05T20:18:40.389Z,77624.64
2019-04-05T20:21:11.225Z,77616.56
2019-04-05T20:23:47.413Z,77610.50
2019-04-05T20:26:13.077Z,77609.49
2019-04-05T20:28:42.388Z,77639.80
2019-04-05T20:31:12.015Z,77632.73
2019-04-05T20:33:41.298Z,77631.72
2019-04-05T20:36:11.679Z,77615.55
2019-04-05T20:38:42.576Z,77618.59
2019-04-05T20:41:11.847Z,77607.47
2019-04-05T20:43:42.232Z,77607.47
2019-04-05T20:46:11.496Z,77624.64
2019-04-05T20:48:41.108Z,77629.70
2019-04-05T20:51:10.416Z,77615.55
2019-04-05T20:53:43.285Z,77627.68
2019-04-05T20:56:12.707Z,77624.64
2019-04-05T20:58:41.997Z,77627.68
2019-04-05T21:01:11.347Z,77644.85
2019-04-05T21:03:41.425Z,77633.73
2019-04-05T21:06:10.723Z,77625.66
2019-04-05T21:08:41.304Z,77617.58
2019-04-05T21:11:11.003Z,77625.66
2019-04-05T21:13:40.334Z,77622.63
2019-04-05T21:16:09.568Z,77610.50
2019-04-05T21:18:38.861Z,77618.59
2019-04-05T21:21:09.414Z,77611.52
2019-04-05T21:23:38.724Z,77630.70
2019-04-05T21:26:08.356Z,77618.59
2019-04-05T21:28:37.608Z,77629.70
2019-04-05T21:31:06.877Z,77643.84
2019-04-05T21:33:36.137Z,77650.91
2019-04-05T21:36:05.818Z,77651.92
2019-04-05T21:38:36.532Z,77656.98
2019-04-05T21:41:06.087Z,77642.83
2019-04-05T21:43:35.781Z,77632.73
2019-04-05T21:46:05.039Z,77631.72
2019-04-05T21:48:34.310Z,77643.84
2019-04-05T21:51:03.562Z,77644.85
2019-04-05T21:53:34.214Z,77642.83
2019-04-05T21:56:04.977Z,77657.98
2019-04-05T21:58:34.215Z,77664.05
2019-04-05T22:01:05.815Z,77633.73
2019-04-05T22:03:36.538Z,77633.73
2019-04-05T22:06:07.760Z,77643.84
2019-04-05T22:08:39.142Z,77625.66
2019-04-05T22:11:08.397Z,77650.91
2019-04-05T22:13:39.794Z,77636.77
2019-04-05T22:16:09.159Z,77647.88
2019-04-05T22:18:40.268Z,77648.89
2019-04-05T22:21:10.252Z,77635.76
2019-04-05T22:23:39.477Z,77645.86
2019-04-05T22:26:09.478Z,77628.69
2019-04-05T22:28:38.744Z,77630.70
2019-04-05T22:31:08.005Z,77633.73
2019-04-05T22:33:37.690Z,77646.88
2019-04-05T22:36:07.964Z,77638.79
2019-04-05T22:38:38.504Z,77661.02
2019-04-05T22:41:07.838Z,77649.91
2019-04-05T22:43:41.038Z,77669.09
2019-04-05T22:46:10.285Z,77650.91
2019-04-05T22:48:39.545Z,77664.05
2019-04-05T22:51:09.146Z,77666.07
2019-04-05T22:53:38.668Z,77669.09
2019-04-05T22:56:07.968Z,77655.97
2019-04-05T22:58:37.215Z,77651.92
2019-04-05T23:01:06.764Z,77646.88
2019-04-05T23:03:36.774Z,77640.81
2019-04-05T23:06:06.055Z,77646.88
2019-04-05T23:08:35.316Z,77650.91
2019-04-05T23:11:05.212Z,77657.98
2019-04-05T23:13:34.945Z,77643.84
2019-04-05T23:16:05.670Z,77635.76
2019-04-05T23:18:36.744Z,77633.73
2019-04-05T23:21:06.970Z,77635.76
2019-04-05T23:23:38.024Z,77626.66
2019-04-05T23:26:07.661Z,77625.66
2019-04-05T23:28:37.301Z,77632.73
2019-04-05T23:31:06.684Z,77623.64
2019-04-05T23:33:36.493Z,77618.59
2019-04-05T23:36:05.849Z,77620.61
2019-04-05T23:38:36.108Z,77616.56
2019-04-05T23:41:06.877Z,77614.55
2019-04-05T23:43:36.458Z,77619.59
2019-04-05T23:46:06.018Z,77616.56
2019-04-05T23:48:38.007Z,77627.68
2019-04-05T23:51:07.290Z,77628.69
2019-04-05T23:53:37.657Z,77628.69
2019-04-05T23:56:06.942Z,77635.76
2019-04-05T23:58:37.897Z,77633.73
